ADDS METAR Data INFO
IDs: Format: Raw Decoded Include TAF

Data at: 0300 UTC 21 Jan 2018

KIXD 210253Z 10005KT 9SM CLR 07/06 A2984 RMK AO2 SLP107 T00670061 57001
KIXD 210153Z 08006KT 10SM CLR 07/06 A2984 RMK AO2 SLP108 T00720061
KIXD 210053Z 08007KT 10SM CLR 07/06 A2985 RMK AO2 SLP109 T00720061
KIXD 202353Z 07005KT 10SM CLR 09/07 A2985 RMK AO2 SLP108 T00890067 10117 20089 53004
KIXD 202302Z 10003KT 10SM SCT026 11/07 A2984 RMK AO2 T01060072
KIXD 202253Z 12003KT 10SM BKN026 11/07 A2984 RMK AO2 SLP106 T01060072
KIXD 202153Z 17006KT 10SM OVC027 11/07 A2983 RMK AO2 SLP104 T01110072
KIXD 202053Z 17006KT 10SM OVC021 11/07 A2984 RMK AO2 SLP104 T01110072 56019
KIXD 201953Z 18008KT 10SM OVC020 11/07 A2984 RMK AO2 SLP106 T01110072
KIXD 201853Z 19010KT 10SM OVC020 11/07 A2986 RMK AO2 SLP113 T01060067
KIXD 201753Z 19013KT 10SM OVC019 10/07 A2989 RMK AO2 SLP124 T01000067 10100 20067 58004
KIXD 201653Z 18010KT 10SM OVC020 09/07 A2991 RMK AO2 SLP130 T00940067
KIXD 201553Z 18010KT 10SM OVC021 09/07 A2991 RMK AO2 SLP129 T00890067
KIXD 201453Z 18007KT 8SM OVC020 08/06 A2990 RMK AO2 SLP128 T00830061 51009
KIXD 201353Z 19007KT 7SM OVC019 07/06 A2989 RMK AO2 SLP125 T00720061
KIXD 201253Z 17005KT 8SM OVC016 07/06 A2989 RMK AO2 SLP123 T00670056
KIXD 201240Z 18006KT 8SM OVC015 07/06 A2989 RMK AO2 T00670056
KIXD 201153Z 19010KT 9SM OVC011 07/06 A2988 RMK AO2 SLP119 T00720061 10078 20044 51004
KIXD 201124Z AUTO 20011G19KT 9SM OVC010 07/06 A2988 RMK AO2 T00720056
KIXD 201053Z AUTO 19013KT 9SM OVC009 07/06 A2987 RMK AO2 SLP118 T00670056
KIXD 201038Z AUTO 19013KT 9SM OVC009 07/05 A2987 RMK AO2 T00670050
KIXD 200953Z AUTO 19015G23KT 10SM OVC012 06/04 A2987 RMK AO2 SLP117 T00560044
KIXD 200923Z AUTO 18011KT 10SM BKN014 05/03 A2987 RMK AO2 T00500033
KIXD 200853Z AUTO 18011KT 10SM CLR 04/03 A2986 RMK AO2 SLP114 T00440033 53001
KIXD 200753Z AUTO 18011KT 10SM CLR 04/02 A2986 RMK AO2 SLP112 T00440022
KIXD 200653Z AUTO 18010KT 10SM CLR 05/02 A2986 RMK AO2 SLP114 T00500017
KIXD 200553Z AUTO 18010KT 10SM CLR 06/01 A2986 RMK AO2 SLP113 T00560011 10067 20044 400831017 50013
KIXD 200453Z AUTO 19011KT 10SM CLR 06/00 A2986 RMK AO2 SLP115 T00560000
KIXD 200353Z 19015KT 10SM CLR 06/M01 A2984 RMK AO2 SLP107 T00561006
KIXD 200253Z 18014KT 10SM CLR 05/M02 A2982 RMK AO2 SLP102 T00501017 50000
KIXD 200153Z 18010KT 10SM CLR 05/M02 A2983 RMK AO2 SLP107 T00501022
KIXD 200053Z 18013KT 10SM CLR 06/M03 A2983 RMK AO2 SLP107 T00611028
KIXD 192353Z 18014KT 10SM CLR 07/M02 A2982 RMK AO2 SLP102 T00671022 10083 20061 58008
KIXD 192253Z 18013KT 10SM CLR 07/M02 A2983 RMK AO2 SLP106 T00721022
KIXD 192153Z 18013KT 10SM CLR 08/M03 A2984 RMK AO2 SLP108 T00781028
KIXD 192053Z 18012KT 10SM CLR 08/M03 A2984 RMK AO2 SLP110 T00831028 56026
KIXD 191953Z 19013G19KT 10SM CLR 08/M03 A2986 RMK AO2 SLP113 T00831033
KIXD 191853Z 18012KT 10SM CLR 08/M03 A2989 RMK AO2 SLP124 T00831033
KIXD 191753Z 19016G20KT 10SM CLR 06/M04 A2992 RMK AO2 SLP136 T00611044 10061 21017 58015
KIXD 191653Z 19013G22KT 10SM CLR 04/M06 A2995 RMK AO2 SLP148 T00391056
KIXD 191553Z 19015G20KT 10SM CLR 02/M07 A2995 RMK AO2 SLP150 T00221067